Time;durP1;ratioP1;P1;durP2;ratioP2;P2;SDS_P1;SDS_P2;PMS_P1;PMS_P2;Temp;Humidity;BMP_temperature;BMP_pressure;BME280_temperature;BME280_humidity;BME280_pressure;Samples;Min_cycle;Max_cycle;Signal;HPM_P1;HPM_P2
2022/07/25 00:07:28;;;;;;;8.50;6.13;;;21.50;99.90;;;;;;20758378;28;20038;-75
2022/07/25 00:17:28;;;;;;;9.03;6.70;;;21.20;99.90;;;;;;20742989;28;20041;-75
2022/07/25 00:27:29;;;;;;;8.57;6.67;;;20.80;99.90;;;;;;20752664;28;20030;-76
2022/07/25 00:37:30;;;;;;;12.57;6.83;;;20.50;99.90;;;;;;20742430;28;20037;-75
2022/07/25 00:47:31;;;;;;;11.17;6.83;;;20.70;99.90;;;;;;20741707;28;20037;-76
2022/07/25 00:57:32;;;;;;;11.03;6.70;;;20.80;99.90;;;;;;20747412;28;20120;-75
2022/07/25 01:07:34;;;;;;;;;;;20.80;99.90;;;;;;20756034;28;20040;-75
2022/07/25 01:17:35;;;;;;;15.63;8.25;;;20.70;99.90;;;;;;20754631;28;19913;-76
2022/07/25 01:27:36;;;;;;;9.63;7.97;;;20.70;99.90;;;;;;20754340;28;20080;-76
2022/07/25 01:37:36;;;;;;;9.90;7.10;;;20.50;99.90;;;;;;20751973;28;20034;-75
2022/07/25 01:47:38;;;;;;;13.73;7.77;;;20.40;99.90;;;;;;20761452;28;20480;-75
2022/07/25 01:57:39;;;;;;;10.20;7.28;;;20.30;99.90;;;;;;20751886;28;20590;-75
2022/07/25 02:07:40;;;;;;;9.63;7.25;;;20.10;99.90;;;;;;20750941;28;20029;-75
2022/07/25 02:17:41;;;;;;;14.53;7.97;;;20.10;99.90;;;;;;20750174;28;20083;-75
2022/07/25 02:27:42;;;;;;;10.80;8.13;;;20.10;99.90;;;;;;20728958;22;20038;-79
2022/07/25 02:37:43;;;;;;;10.43;7.73;;;19.80;99.90;;;;;;20693720;28;20032;-80
2022/07/25 02:47:43;;;;;;;14.53;8.27;;;20.00;99.90;;;;;;20697613;28;20046;-79
2022/07/25 02:57:44;;;;;;;9.13;7.60;;;20.00;99.90;;;;;;20697784;28;20834;-79
2022/07/25 03:07:45;;;;;;;11.90;7.43;;;19.90;99.90;;;;;;20695901;28;20026;-79
2022/07/25 03:17:46;;;;;;;11.60;8.07;;;19.60;99.90;;;;;;20692791;28;20092;-79
2022/07/25 03:27:47;;;;;;;10.83;8.07;;;19.60;99.90;;;;;;20699322;28;20030;-79
2022/07/25 03:37:48;;;;;;;13.43;8.60;;;19.60;99.90;;;;;;20697899;28;20046;-79
2022/07/25 03:47:48;;;;;;;12.13;8.43;;;19.20;99.90;;;;;;20667929;28;20038;-78
2022/07/25 03:57:49;;;;;;;10.67;7.97;;;19.20;99.90;;;;;;20683304;28;20057;-79
2022/07/25 04:07:50;;;;;;;13.50;8.83;;;19.00;99.90;;;;;;20689445;28;20396;-80
2022/07/25 04:17:51;;;;;;;14.27;8.50;;;19.00;99.90;;;;;;20685411;28;20484;-79
2022/07/25 04:27:52;;;;;;;12.10;9.00;;;19.00;99.90;;;;;;20674575;28;20041;-78
2022/07/25 04:37:53;;;;;;;15.03;8.83;;;18.90;99.90;;;;;;20696525;28;20042;-78
2022/07/25 04:47:53;;;;;;;10.37;7.97;;;19.00;99.90;;;;;;20695364;28;20058;-78
2022/07/25 04:57:54;;;;;;;11.17;7.97;;;19.10;99.90;;;;;;20705544;28;20034;-79
2022/07/25 05:07:57;;;;;;;14.07;9.37;;;19.40;99.90;;;;;;20684292;28;20058;-78
2022/07/25 05:17:58;;;;;;;12.95;9.02;;;19.50;99.90;;;;;;20689343;28;20038;-78
2022/07/25 05:27:59;;;;;;;12.80;9.17;;;19.80;99.90;;;;;;20674228;28;20066;-79
2022/07/25 05:38:00;;;;;;;14.67;9.50;;;19.80;99.90;;;;;;20690043;28;20042;-79
2022/07/25 05:48:00;;;;;;;10.60;8.27;;;19.90;99.90;;;;;;20748459;28;20373;-78
2022/07/25 05:58:01;;;;;;;14.33;9.47;;;20.40;99.90;;;;;;20778816;28;20029;-79
2022/07/25 06:08:02;;;;;;;12.37;9.30;;;20.70;99.90;;;;;;20773108;28;20049;-79
2022/07/25 06:18:03;;;;;;;14.87;9.03;;;20.80;99.90;;;;;;20777808;28;20127;-78
2022/07/25 06:28:04;;;;;;;17.57;9.23;;;21.30;99.90;;;;;;20767004;28;20034;-77
2022/07/25 06:38:05;;;;;;;11.35;8.70;;;21.70;99.90;;;;;;20778042;28;20045;-78
2022/07/25 06:48:06;;;;;;;16.40;10.07;;;22.10;99.90;;;;;;20784681;28;20571;-78
2022/07/25 06:58:06;;;;;;;12.77;8.83;;;22.90;99.90;;;;;;20783923;28;20025;-78
2022/07/25 07:08:07;;;;;;;14.63;9.27;;;23.20;99.90;;;;;;20781449;28;20679;-77
2022/07/25 07:18:08;;;;;;;;;;;23.80;99.90;;;;;;20767863;28;20109;-78
2022/07/25 07:28:09;;;;;;;15.03;9.23;;;24.30;99.90;;;;;;20789536;28;19913;-78
2022/07/25 07:38:10;;;;;;;;;;;25.00;99.90;;;;;;20786389;28;20030;-79
2022/07/25 07:48:11;;;;;;;11.48;8.65;;;25.20;99.90;;;;;;20777192;28;19921;-78
2022/07/25 07:58:14;;;;;;;12.18;9.45;;;26.10;99.90;;;;;;20734555;28;20384;-78
2022/07/25 08:08:16;;;;;;;12.93;8.88;;;27.20;99.90;;;;;;20770823;28;20038;-78
2022/07/25 08:18:18;;;;;;;13.05;8.43;;;28.40;99.90;;;;;;20725533;28;20491;-78
2022/07/25 08:28:19;;;;;;;10.93;8.18;;;29.30;99.90;;;;;;20741319;22;20065;-79
2022/07/25 08:38:22;;;;;;;14.05;8.52;;;29.50;99.90;;;;;;20664176;28;20416;-78
2022/07/25 08:48:24;;;;;;;14.50;8.30;;;30.20;99.90;;;;;;20648099;28;20111;-79
2022/07/25 08:58:25;;;;;;;10.27;7.57;;;31.50;99.90;;;;;;20647441;28;20038;-80
2022/07/25 09:08:26;;;;;;;10.35;7.28;;;32.40;99.90;;;;;;20602453;28;20552;-79
2022/07/25 09:18:27;;;;;;;10.52;6.15;;;32.90;99.90;;;;;;20617849;28;20031;-79
2022/07/25 09:28:28;;;;;;;9.65;6.93;;;32.50;99.90;;;;;;20592223;28;20474;-78
2022/07/25 09:38:29;;;;;;;8.75;7.03;;;32.80;99.90;;;;;;20592828;28;20035;-80
2022/07/25 09:48:30;;;;;;;7.32;5.43;;;33.40;99.90;;;;;;20589703;28;20508;-78
2022/07/25 09:58:31;;;;;;;8.68;5.78;;;33.50;99.90;;;;;;20590395;28;20041;-80
2022/07/25 10:08:39;;;;;;;6.57;4.90;;;33.50;99.90;;;;;;20589450;28;20034;-79
2022/07/25 10:18:48;;;;;;;8.02;4.78;;;34.00;99.90;;;;;;20588659;28;20061;-78
2022/07/25 10:28:51;;;;;;;8.70;4.70;;;33.90;99.50;;;;;;20590346;28;20085;-79
2022/07/25 10:38:56;;;;;;;6.47;4.15;;;34.70;99.20;;;;;;20592103;28;20035;-80
2022/07/25 10:49:03;;;;;;;11.32;4.35;;;35.20;98.50;;;;;;20594434;28;20038;-76
2022/07/25 10:59:03;;;;;;;4.30;3.90;;;35.20;97.40;;;;;;20590046;28;20038;-77
2022/07/25 11:09:23;;;;;;;7.10;4.00;;;35.60;96.20;;;;;;20585363;28;20057;-78
2022/07/25 11:19:28;;;;;;;5.23;3.80;;;36.00;95.90;;;;;;20583728;28;20862;-78
2022/07/25 11:29:29;;;;;;;4.65;4.15;;;35.70;95.90;;;;;;20585590;28;20038;-78
2022/07/25 11:39:32;;;;;;;5.78;3.95;;;35.70;94.60;;;;;;20589557;28;20034;-78
2022/07/25 11:49:44;;;;;;;6.88;3.80;;;36.40;93.80;;;;;;20607521;28;20026;-79
2022/07/25 11:59:46;;;;;;;4.57;3.60;;;35.50;93.70;;;;;;20626347;28;20085;-80
2022/07/25 12:09:56;;;;;;;6.20;4.78;;;35.70;93.10;;;;;;20611016;28;20062;-79
2022/07/25 12:19:57;;;;;;;6.25;3.80;;;34.90;92.90;;;;;;20588751;28;20389;-80
2022/07/25 12:29:58;;;;;;;6.30;4.45;;;36.10;93.00;;;;;;20569904;28;20085;-78
2022/07/25 12:39:59;;;;;;;4.40;4.00;;;35.90;93.50;;;;;;20561134;28;20121;-79
2022/07/25 12:50:00;;;;;;;5.78;4.70;;;36.30;91.80;;;;;;20544557;28;20306;-79
2022/07/25 13:00:04;;;;;;;4.88;3.95;;;36.50;92.80;;;;;;20574979;28;20074;-78
2022/07/25 13:10:06;;;;;;;6.95;4.03;;;35.70;92.60;;;;;;20592102;28;20379;-78
2022/07/25 13:20:07;;;;;;;6.15;3.97;;;35.80;93.20;;;;;;20593614;28;20027;-77
2022/07/25 13:30:09;;;;;;;5.53;3.83;;;35.10;94.20;;;;;;20591231;28;20039;-79
2022/07/25 13:40:10;;;;;;;9.45;3.95;;;35.50;93.40;;;;;;20612690;28;20440;-78
2022/07/25 13:50:10;;;;;;;5.82;3.95;;;34.40;94.10;;;;;;20622969;28;20081;-78
2022/07/25 14:00:11;;;;;;;4.90;3.75;;;33.50;93.90;;;;;;20635321;28;20084;-78
2022/07/25 14:10:13;;;;;;;6.72;4.00;;;33.90;93.60;;;;;;20655190;28;20031;-80
2022/07/25 14:20:14;;;;;;;5.32;3.78;;;33.90;93.20;;;;;;20647004;28;20026;-79
2022/07/25 14:30:15;;;;;;;5.17;3.40;;;33.30;94.10;;;;;;20619315;28;20072;-77
2022/07/25 14:40:16;;;;;;;6.45;3.88;;;32.90;94.30;;;;;;20690857;28;20827;-78
2022/07/25 14:50:17;;;;;;;5.15;3.30;;;33.20;95.00;;;;;;20804684;22;20070;-82
2022/07/25 15:00:18;;;;;;;4.45;3.47;;;33.20;94.40;;;;;;20670228;28;20038;-84
2022/07/25 15:10:19;;;;;;;6.18;3.50;;;34.00;93.80;;;;;;20683142;28;20038;-83
2022/07/25 15:20:20;;;;;;;5.55;3.78;;;33.90;93.50;;;;;;20680976;28;20041;-83
2022/07/25 15:30:21;;;;;;;5.95;4.00;;;34.10;93.20;;;;;;20674275;28;20038;-82
2022/07/25 15:40:22;;;;;;;8.93;3.88;;;33.50;93.80;;;;;;20685449;28;20034;-81
2022/07/25 15:50:23;;;;;;;6.40;4.07;;;33.70;93.70;;;;;;20683696;28;20058;-82
2022/07/25 16:00:24;;;;;;;5.35;3.50;;;33.60;93.50;;;;;;20742506;28;20079;-81
2022/07/25 16:10:26;;;;;;;4.88;4.00;;;33.20;94.40;;;;;;20747143;28;20067;-83
2022/07/25 16:20:27;;;;;;;9.30;4.07;;;32.70;94.90;;;;;;20728184;28;20062;-83
2022/07/25 16:30:28;;;;;;;6.30;4.57;;;32.70;95.60;;;;;;20721679;28;20459;-82
2022/07/25 16:40:29;;;;;;;8.50;3.67;;;32.30;96.40;;;;;;20760965;28;20022;-82
2022/07/25 16:50:30;;;;;;;4.85;3.72;;;32.10;96.80;;;;;;20759140;28;20057;-81
2022/07/25 17:00:31;;;;;;;7.97;3.93;;;31.90;96.60;;;;;;20764324;28;20088;-82
2022/07/25 17:10:32;;;;;;;9.50;4.00;;;31.20;95.30;;;;;;20730479;28;20368;-83
2022/07/25 17:20:33;;;;;;;8.13;3.88;;;30.90;94.90;;;;;;20736454;28;20033;-82
2022/07/25 17:30:34;;;;;;;6.50;3.17;;;30.70;94.70;;;;;;20722998;28;20033;-83
2022/07/25 17:40:35;;;;;;;5.03;3.38;;;30.60;94.90;;;;;;20725495;28;20035;-82
2022/07/25 17:50:36;;;;;;;5.82;3.40;;;30.10;95.00;;;;;;20692524;28;20046;-84
2022/07/25 18:00:37;;;;;;;5.85;3.22;;;30.10;95.60;;;;;;20724926;28;20030;-83
2022/07/25 18:10:38;;;;;;;11.38;3.38;;;29.80;95.80;;;;;;20759399;28;20092;-83
2022/07/25 18:20:39;;;;;;;7.65;3.70;;;29.70;96.20;;;;;;20746131;28;20062;-83
2022/07/25 18:30:40;;;;;;;7.95;3.20;;;29.50;96.60;;;;;;20739861;28;20041;-82
2022/07/25 18:40:41;;;;;;;8.23;3.95;;;29.20;98.30;;;;;;20760855;28;20057;-82
2022/07/25 18:50:42;;;;;;;6.10;3.75;;;28.90;97.60;;;;;;20759476;28;20394;-84
2022/07/25 19:00:43;;;;;;;4.88;3.38;;;28.60;97.90;;;;;;20744275;28;20057;-82
2022/07/25 19:10:44;;;;;;;8.60;3.40;;;28.30;98.10;;;;;;20757832;28;20195;-81
2022/07/25 19:20:45;;;;;;;4.72;3.20;;;28.10;98.20;;;;;;20753678;28;20124;-81
2022/07/25 19:30:46;;;;;;;10.70;4.25;;;27.90;98.40;;;;;;20732077;28;20034;-80
2022/07/25 19:40:47;;;;;;;6.38;3.20;;;27.60;98.50;;;;;;20705063;28;20113;-82
2022/07/25 19:50:48;;;;;;;5.55;3.50;;;27.50;98.80;;;;;;20668033;28;20491;-83
2022/07/25 20:00:49;;;;;;;6.35;3.90;;;27.40;99.10;;;;;;20649179;28;20121;-83
2022/07/25 20:10:50;;;;;;;5.35;3.65;;;27.20;99.50;;;;;;20662046;28;20041;-83
2022/07/25 20:20:51;;;;;;;6.60;3.50;;;26.90;99.90;;;;;;20660306;28;20180;-85
2022/07/25 20:30:54;;;;;;;8.48;3.97;;;26.70;99.90;;;;;;20759359;23;20042;-78
2022/07/25 20:40:55;;;;;;;9.07;3.60;;;26.50;99.90;;;;;;20753675;28;20034;-79
2022/07/25 20:50:56;;;;;;;5.57;3.60;;;26.20;99.90;;;;;;20718217;28;20030;-78
2022/07/25 21:00:57;;;;;;;8.93;3.95;;;25.90;99.90;;;;;;20707056;28;20045;-73
2022/07/25 21:10:58;;;;;;;6.80;3.90;;;25.70;99.90;;;;;;20702797;28;20081;-73
2022/07/25 21:20:59;;;;;;;8.32;3.42;;;25.60;99.90;;;;;;20712193;28;20118;-73
2022/07/25 21:30:59;;;;;;;;;;;25.50;99.90;;;;;;20711772;28;20109;-72
2022/07/25 21:41:00;;;;;;;5.87;3.50;;;25.40;99.90;;;;;;20710951;28;19916;-73
2022/07/25 21:51:01;;;;;;;7.95;3.35;;;25.20;99.90;;;;;;20712052;28;20037;-73
2022/07/25 22:01:02;;;;;;;7.57;3.55;;;24.90;99.90;;;;;;20732194;28;20030;-73
2022/07/25 22:11:03;;;;;;;;;;;24.70;99.90;;;;;;20750839;28;20384;-73
2022/07/25 22:21:04;;;;;;;7.43;3.13;;;24.40;99.90;;;;;;20749817;28;20346;-72
2022/07/25 22:31:04;;;;;;;;;;;24.20;99.90;;;;;;20748025;28;20098;-73
2022/07/25 22:41:05;;;;;;;5.87;3.23;;;24.10;99.90;;;;;;20748391;28;20315;-73
2022/07/25 22:51:06;;;;;;;;;;;23.80;99.90;;;;;;20747874;28;20053;-73
2022/07/25 23:01:07;;;;;;;5.10;2.00;;;23.60;99.90;;;;;;20746998;28;19955;-73
2022/07/25 23:11:08;;;;;;;3.67;1.98;;;23.50;99.90;;;;;;20745175;28;20034;-72
2022/07/25 23:21:09;;;;;;;;;;;23.30;99.90;;;;;;20746129;28;20496;-73
2022/07/25 23:31:09;;;;;;;4.97;1.60;;;23.10;99.90;;;;;;20744807;28;19940;-72
2022/07/25 23:41:10;;;;;;;2.33;1.40;;;23.10;99.90;;;;;;20744044;28;20029;-72
2022/07/25 23:51:11;;;;;;;5.40;1.73;;;22.80;99.90;;;;;;20743783;28;20025;-73
